New Richmond, WI

05:44 PM CST del 07 Febbraio 2016 (GMT -0600)
Country View Ridge | | Change Station
CLOSE
Current Station
Stazione meteo personale
Location: New Richmond, WI
Altitudine: 971 ft
Stazioni meteo nelle vicinanze

Alt. 971 ft 45.10 °N, 92.60 °W | Updated 4 seconds ago

Light Snow
Neve debole
33.6 °F
Sembra 22 °F
N
19.2
Vento Variabile Vento da ONO
Gusts 24.8 mph

Oggi
Massima -- | Minima -- °F
--% Possibilità di precip.
Ieri
Massima -- | Minima -- °F
Precip. -- in
Pressione 29.62 in
Visibilità 2.5 miglia
Nuvole Nubi sparse 600 ft
Molto nuvoloso 2100 ft
Coperto 2500 ft
Raffreddamento del vento 22 °F
Punto di rugiada 26 °F
Umidità 73%
Piovosità 0.00 in
Spessore del manto nevoso Non disponibile.
7:23 AM 5:25 PM
Luna calante, 1% visible
METAR KRNH 072335Z AUTO 28011G25KT 2 1/2SM -SN SCT006 BKN021 OVC025 01/M01 A2962 RMK AO2 T00051011
Pressione 29.62 in
Visibilità 2.5 miglia
Nuvole Nubi sparse 600 ft
Molto nuvoloso 2100 ft
Coperto 2500 ft
Raffreddamento del vento 22 °F
Punto di rugiada 26 °F
Umidità 73%
Piovosità 0.00 in
Spessore del manto nevoso Non disponibile.
7:23 AM 5:25 PM
Luna calante, 1% visible
METAR KRNH 072335Z AUTO 28011G25KT 2 1/2SM -SN SCT006 BKN021 OVC025 01/M01 A2962 RMK AO2 T00051011

10-Day Weather Forecast

Almanac

Astronomia

Feb. 07, 2016 Alba Tramonto
Ora attuale
Crepuscolo civile
Crepuscolo nautico
Crepuscolo astronomico
Luna
Estensione della luce visibile
Lunghezza del giorno
Tomorrow will be .
, % of the Moon is Illuminated

Gli estremi di oggi

State Highs State Lows

Community

WunderPhotos

Upload Photos

1,891,329 foto caricate!

WunderBlog® & News

Nearby

Qualità dell'aria

  Qualità dell'aria Indice AQ Inquinante
Not available.

Profondità neve

Stazione Profondità Altitudine

Attività sismica

Città  Distanza Mag. Data & Ora
Minimo Magnitudo Mostrato è 2.5.

Temperature delle acque costiere

Località Temperatura

Stations

Stazioni meteo nelle vicinanze

Ubicazione della stazione Temp. Raffreddamento del vento Punto di rugiada Umidità Vento Precip. Alt. Aggiornato Tipo
                   

Watches & Warnings

There are currently no watches in effect.